createdAt,value
2022-10-22T00:00:54.253Z,100.00
2022-10-22T00:03:21.988Z,100.00
2022-10-22T00:05:49.859Z,100.00
2022-10-22T00:08:17.606Z,100.00
2022-10-22T00:10:45.421Z,100.00
2022-10-22T00:13:15.681Z,100.00
2022-10-22T00:15:43.381Z,100.00
2022-10-22T00:18:11.066Z,100.00
2022-10-22T00:20:38.803Z,100.00
2022-10-22T00:23:06.555Z,100.00
2022-10-22T00:25:35.767Z,100.00
2022-10-22T00:28:03.942Z,100.00
2022-10-22T00:30:32.995Z,100.00
2022-10-22T00:33:00.813Z,100.00
2022-10-22T00:35:28.605Z,100.00
2022-10-22T00:37:56.265Z,100.00
2022-10-22T00:40:24.086Z,100.00
2022-10-22T00:42:51.714Z,100.00
2022-10-22T00:45:24.631Z,100.00
2022-10-22T00:47:58.820Z,100.00
2022-10-22T00:50:31.331Z,100.00
2022-10-22T00:52:59.920Z,100.00
2022-10-22T00:55:29.595Z,100.00
2022-10-22T00:57:59.180Z,100.00
2022-10-22T01:00:27.598Z,100.00
2022-10-22T01:02:56.957Z,100.00
2022-10-22T01:05:27.874Z,100.00
2022-10-22T01:07:55.863Z,100.00
2022-10-22T01:10:39.978Z,100.00
2022-10-22T01:13:21.074Z,100.00
2022-10-22T01:15:56.893Z,100.00
2022-10-22T01:18:33.832Z,100.00
2022-10-22T01:21:10.758Z,100.00
2022-10-22T01:24:05.226Z,100.00
2022-10-22T01:26:45.008Z,100.00
2022-10-22T01:29:18.115Z,100.00
2022-10-22T01:31:50.020Z,100.00
2022-10-22T01:34:19.956Z,100.00
2022-10-22T01:36:49.128Z,100.00
2022-10-22T01:39:18.332Z,100.00
2022-10-22T01:41:46.289Z,100.00
2022-10-22T01:44:30.132Z,100.00
2022-10-22T01:47:08.829Z,100.00
2022-10-22T01:49:55.897Z,100.00
2022-10-22T01:52:33.034Z,100.00
2022-10-22T01:55:15.978Z,100.00
2022-10-22T01:57:52.044Z,100.00
2022-10-22T02:00:21.444Z,100.00
2022-10-22T02:02:57.366Z,100.00
2022-10-22T02:05:31.167Z,100.00
2022-10-22T02:08:02.827Z,100.00
2022-10-22T02:10:31.529Z,100.00
2022-10-22T02:13:02.111Z,100.00
2022-10-22T02:15:34.267Z,100.00
2022-10-22T02:18:02.074Z,100.00
2022-10-22T02:20:32.588Z,100.00
2022-10-22T02:23:01.577Z,100.00
2022-10-22T02:25:33.017Z,100.00
2022-10-22T02:28:08.731Z,100.00
2022-10-22T02:30:40.924Z,100.00
2022-10-22T02:33:13.837Z,100.00
2022-10-22T02:35:43.530Z,100.00
2022-10-22T02:38:12.573Z,100.00
2022-10-22T02:40:40.333Z,100.00
2022-10-22T02:43:08.493Z,100.00
2022-10-22T02:45:37.992Z,100.00
2022-10-22T02:48:06.385Z,100.00
2022-10-22T02:50:34.058Z,100.00
2022-10-22T02:53:01.832Z,100.00
2022-10-22T02:55:29.530Z,100.00
2022-10-22T02:57:57.225Z,100.00
2022-10-22T03:00:25.062Z,100.00
2022-10-22T03:02:54.158Z,100.00
2022-10-22T03:05:21.937Z,100.00
2022-10-22T03:07:49.707Z,100.00
2022-10-22T03:10:17.602Z,100.00
2022-10-22T03:12:45.341Z,100.00
2022-10-22T03:15:13.019Z,100.00
2022-10-22T03:17:40.976Z,100.00
2022-10-22T03:20:10.891Z,100.00
2022-10-22T03:22:42.271Z,100.00
2022-10-22T03:25:14.143Z,100.00
2022-10-22T03:27:43.450Z,100.00
2022-10-22T03:30:12.102Z,100.00
2022-10-22T03:32:39.958Z,100.00
2022-10-22T03:35:08.146Z,100.00
2022-10-22T03:37:38.119Z,100.00
2022-10-22T03:40:08.664Z,100.00
2022-10-22T03:42:36.524Z,100.00
2022-10-22T03:45:05.103Z,100.00
2022-10-22T03:47:32.801Z,100.00
2022-10-22T03:50:00.627Z,100.00
2022-10-22T03:52:28.338Z,100.00
2022-10-22T03:54:57.703Z,100.00
2022-10-22T03:57:25.421Z,100.00
2022-10-22T03:59:53.139Z,100.00
2022-10-22T04:02:20.841Z,100.00
2022-10-22T04:04:48.533Z,100.00
2022-10-22T04:07:16.368Z,100.00
2022-10-22T04:09:44.065Z,100.00
2022-10-22T04:12:13.109Z,100.00
2022-10-22T04:14:40.922Z,100.00
2022-10-22T04:17:08.591Z,100.00
2022-10-22T04:19:36.551Z,100.00
2022-10-22T04:22:04.560Z,100.00
2022-10-22T04:24:33.251Z,100.00
2022-10-22T04:27:00.960Z,100.00
2022-10-22T04:29:29.951Z,100.00
2022-10-22T04:31:57.678Z,100.00
2022-10-22T04:34:28.732Z,100.00
2022-10-22T04:36:56.710Z,100.00
2022-10-22T04:39:24.352Z,100.00
2022-10-22T04:41:52.090Z,100.00
2022-10-22T04:44:19.792Z,100.00
2022-10-22T04:46:49.021Z,100.00
2022-10-22T04:49:16.754Z,100.00
2022-10-22T04:51:44.480Z,100.00
2022-10-22T04:54:12.160Z,100.00
2022-10-22T04:56:39.866Z,100.00
2022-10-22T04:59:09.407Z,100.00
2022-10-22T05:01:42.656Z,100.00
2022-10-22T05:04:15.226Z,100.00
2022-10-22T05:06:43.546Z,100.00
2022-10-22T05:09:14.162Z,100.00
2022-10-22T05:11:45.426Z,100.00
2022-10-22T05:14:13.469Z,100.00
2022-10-22T05:16:41.192Z,100.00
2022-10-22T05:19:10.034Z,100.00
2022-10-22T05:21:39.408Z,100.00
2022-10-22T05:24:08.029Z,100.00
2022-10-22T05:26:35.689Z,100.00
2022-10-22T05:29:03.492Z,100.00
2022-10-22T05:31:31.201Z,100.00
2022-10-22T05:33:58.858Z,100.00
2022-10-22T05:36:26.550Z,100.00
2022-10-22T05:38:55.837Z,100.00
2022-10-22T05:41:25.123Z,100.00
2022-10-22T05:43:55.326Z,100.00
2022-10-22T05:46:25.132Z,100.00
2022-10-22T05:48:53.560Z,100.00
2022-10-22T05:51:21.655Z,100.00
2022-10-22T05:53:53.753Z,100.00
2022-10-22T05:56:23.358Z,100.00
2022-10-22T05:58:51.251Z,100.00
2022-10-22T06:01:21.332Z,100.00
2022-10-22T06:03:49.517Z,100.00
2022-10-22T06:06:21.276Z,100.00
2022-10-22T06:08:51.022Z,100.00
2022-10-22T06:11:20.385Z,100.00
2022-10-22T06:13:50.504Z,100.00
2022-10-22T06:16:18.479Z,100.00
2022-10-22T06:18:46.155Z,100.00
2022-10-22T06:21:16.621Z,100.00
2022-10-22T06:23:45.296Z,100.00
2022-10-22T06:26:13.212Z,100.00
2022-10-22T06:28:40.900Z,100.00
2022-10-22T06:31:10.612Z,100.00
2022-10-22T06:33:42.229Z,100.00
2022-10-22T06:36:12.015Z,100.00
2022-10-22T06:38:40.401Z,100.00
2022-10-22T06:41:09.883Z,100.00
2022-10-22T06:43:37.722Z,100.00
2022-10-22T06:46:08.701Z,100.00
2022-10-22T06:48:37.976Z,100.00
2022-10-22T06:51:08.406Z,100.00
2022-10-22T06:53:37.537Z,100.00
2022-10-22T06:56:09.908Z,100.00
2022-10-22T06:58:37.907Z,100.00
2022-10-22T07:01:07.827Z,100.00
2022-10-22T07:03:37.081Z,100.00
2022-10-22T07:06:08.435Z,100.00
2022-10-22T07:08:37.010Z,100.00
2022-10-22T07:11:09.377Z,100.00
2022-10-22T07:13:37.234Z,100.00
2022-10-22T07:16:05.985Z,100.00
2022-10-22T07:18:34.979Z,100.00
2022-10-22T07:21:04.216Z,100.00
2022-10-22T07:23:32.460Z,100.00
2022-10-22T07:26:02.385Z,100.00
2022-10-22T07:28:30.184Z,100.00
2022-10-22T07:30:57.877Z,100.00
2022-10-22T07:33:25.628Z,100.00
2022-10-22T07:35:59.140Z,100.00
2022-10-22T07:38:29.022Z,100.00
2022-10-22T07:40:57.021Z,100.00
2022-10-22T07:43:25.542Z,100.00
2022-10-22T07:45:55.596Z,100.00
2022-10-22T07:48:23.572Z,100.00
2022-10-22T07:50:54.050Z,100.00
2022-10-22T07:53:22.405Z,100.00
2022-10-22T07:55:52.571Z,100.00
2022-10-22T07:58:21.192Z,100.00
2022-10-22T08:00:49.795Z,100.00
2022-10-22T08:03:18.968Z,100.00
2022-10-22T08:05:47.100Z,100.00
2022-10-22T08:08:16.246Z,100.00
2022-10-22T08:10:44.617Z,100.00
2022-10-22T08:13:13.725Z,100.00
2022-10-22T08:18:16.025Z,100.00
2022-10-22T08:20:43.696Z,100.00
2022-10-22T08:23:11.411Z,100.00
2022-10-22T08:25:39.162Z,100.00
2022-10-22T08:28:06.886Z,100.00
2022-10-22T08:30:37.886Z,100.00
2022-10-22T08:33:06.108Z,100.00
2022-10-22T08:35:33.869Z,100.00
2022-10-22T08:38:01.545Z,100.00
2022-10-22T08:40:33.009Z,100.00
2022-10-22T08:43:18.938Z,100.00
2022-10-22T08:45:57.098Z,100.00
2022-10-22T08:48:40.703Z,100.00
2022-10-22T08:51:15.859Z,100.00
2022-10-22T08:53:59.313Z,100.00
2022-10-22T08:56:27.110Z,100.00
2022-10-22T08:59:01.347Z,100.00
2022-10-22T09:01:35.258Z,100.00
2022-10-22T09:04:06.079Z,100.00
2022-10-22T09:06:36.462Z,100.00
2022-10-22T09:09:13.619Z,100.00
2022-10-22T09:11:45.510Z,100.00
2022-10-22T09:14:16.761Z,100.00
2022-10-22T09:17:04.078Z,100.00
2022-10-22T09:19:41.146Z,100.00
2022-10-22T09:22:19.432Z,100.00
2022-10-22T09:24:48.889Z,100.00
2022-10-22T09:27:19.015Z,100.00
2022-10-22T09:29:48.199Z,100.00
2022-10-22T09:32:18.508Z,100.00
2022-10-22T09:34:46.824Z,100.00
2022-10-22T09:37:18.966Z,100.00
2022-10-22T09:39:48.631Z,100.00
2022-10-22T09:42:21.655Z,100.00
2022-10-22T09:44:54.257Z,100.00
2022-10-22T09:47:43.539Z,100.00
2022-10-22T09:50:27.994Z,100.00
2022-10-22T09:52:59.509Z,100.00
2022-10-22T09:55:28.171Z,100.00
2022-10-22T09:57:57.008Z,100.00
2022-10-22T10:00:25.925Z,100.00
2022-10-22T10:02:57.722Z,100.00
2022-10-22T10:05:31.477Z,100.00
2022-10-22T10:07:59.615Z,100.00
2022-10-22T10:10:36.139Z,100.00
2022-10-22T10:13:18.559Z,100.00
2022-10-22T10:15:55.459Z,100.00
2022-10-22T10:18:37.825Z,100.00
2022-10-22T10:23:57.818Z,100.00
2022-10-22T10:26:32.570Z,100.00
2022-10-22T10:29:14.960Z,100.00
2022-10-22T10:31:53.483Z,100.00
2022-10-22T10:34:32.969Z,100.00
2022-10-22T10:37:05.549Z,100.00
2022-10-22T10:39:51.531Z,100.00
2022-10-22T10:42:27.758Z,100.00
2022-10-22T10:45:04.917Z,100.00
2022-10-22T10:47:48.201Z,100.00
2022-10-22T10:50:25.339Z,100.00
2022-10-22T10:53:04.455Z,100.00
2022-10-22T10:55:38.337Z,100.00
2022-10-22T10:58:11.288Z,100.00
2022-10-22T11:00:48.195Z,100.00
2022-10-22T11:03:50.308Z,100.00
2022-10-22T11:06:25.359Z,100.00
2022-10-22T11:08:58.969Z,100.00
2022-10-22T11:11:34.009Z,99.55
2022-10-22T11:14:11.077Z,89.68
2022-10-22T11:16:46.133Z,100.00
2022-10-22T11:19:22.791Z,100.00
2022-10-22T11:22:07.312Z,98.13
2022-10-22T11:24:42.144Z,94.48
2022-10-22T11:27:23.791Z,100.00
2022-10-22T11:29:59.352Z,99.46
2022-10-22T11:32:28.389Z,100.00
2022-10-22T11:34:59.602Z,96.58
2022-10-22T11:37:34.778Z,94.80
2022-10-22T11:40:06.566Z,98.69
2022-10-22T11:42:36.041Z,100.00
2022-10-22T11:45:07.952Z,95.90
2022-10-22T11:47:42.824Z,100.00
2022-10-22T11:50:22.842Z,100.00
2022-10-22T11:53:00.598Z,100.00
2022-10-22T11:55:33.211Z,100.00
2022-10-22T11:58:02.187Z,88.88
2022-10-22T12:00:42.259Z,85.17
2022-10-22T12:03:24.642Z,77.86
2022-10-22T12:06:11.525Z,92.00
2022-10-22T12:08:45.732Z,99.74
2022-10-22T12:11:17.769Z,97.93
2022-10-22T12:14:03.762Z,92.40
2022-10-22T12:16:55.123Z,78.43
2022-10-22T12:19:32.928Z,100.00
2022-10-22T12:22:07.314Z,95.55
2022-10-22T12:24:40.534Z,90.71
2022-10-22T12:27:22.213Z,87.00
2022-10-22T12:29:54.884Z,88.55
2022-10-22T12:32:22.652Z,83.87
2022-10-22T12:34:52.868Z,76.27
2022-10-22T12:37:21.237Z,78.02
2022-10-22T12:39:50.383Z,79.66
2022-10-22T12:42:19.032Z,93.80
2022-10-22T12:44:47.167Z,96.17
2022-10-22T12:47:17.626Z,96.78
2022-10-22T12:49:49.156Z,76.74
2022-10-22T12:52:19.499Z,95.36
2022-10-22T12:54:48.700Z,100.00
2022-10-22T12:57:21.129Z,90.90
2022-10-22T12:59:52.187Z,98.13
2022-10-22T13:02:22.833Z,96.05
2022-10-22T13:05:15.991Z,87.58
2022-10-22T13:07:45.732Z,83.26
2022-10-22T13:10:19.977Z,81.23
2022-10-22T13:12:55.285Z,82.17
2022-10-22T13:15:34.887Z,85.12
2022-10-22T13:18:04.637Z,91.74
2022-10-22T13:20:33.176Z,89.33
2022-10-22T13:23:02.774Z,93.56
2022-10-22T13:25:31.786Z,90.80
2022-10-22T13:28:04.002Z,98.92
2022-10-22T13:30:34.019Z,100.00
2022-10-22T13:33:03.987Z,100.00
2022-10-22T13:35:34.136Z,100.00
2022-10-22T13:38:02.299Z,96.64
2022-10-22T13:40:30.145Z,89.21
2022-10-22T13:42:57.913Z,79.11
2022-10-22T13:45:27.434Z,72.10
2022-10-22T13:47:56.520Z,75.89
2022-10-22T13:50:24.208Z,73.39
2022-10-22T13:52:53.893Z,72.25
2022-10-22T13:55:25.421Z,69.90
2022-10-22T13:57:54.154Z,69.79
2022-10-22T14:00:23.209Z,70.17
2022-10-22T14:03:00.194Z,65.97
2022-10-22T14:05:27.888Z,79.57
2022-10-22T14:07:57.865Z,74.33
2022-10-22T14:10:25.978Z,73.09
2022-10-22T14:12:54.005Z,73.42
2022-10-22T14:15:23.708Z,75.47
2022-10-22T14:17:54.878Z,71.23
2022-10-22T14:20:25.843Z,74.86
2022-10-22T14:22:53.821Z,70.16
2022-10-22T14:25:23.672Z,69.74
2022-10-22T14:27:51.704Z,73.75
2022-10-22T14:30:21.547Z,72.51
2022-10-22T14:32:49.756Z,68.91
2022-10-22T14:35:21.147Z,74.66
2022-10-22T14:37:49.211Z,71.22
2022-10-22T14:40:19.134Z,72.79
2022-10-22T14:42:48.657Z,72.13
2022-10-22T14:45:20.982Z,72.93
2022-10-22T14:47:48.747Z,74.89
2022-10-22T14:50:18.289Z,75.87
2022-10-22T14:52:46.259Z,64.25
2022-10-22T14:55:15.641Z,78.58
2022-10-22T14:57:44.261Z,75.75
2022-10-22T15:00:18.768Z,86.06
2022-10-22T15:02:47.929Z,84.52
2022-10-22T15:05:17.353Z,83.49
2022-10-22T15:07:46.675Z,83.50
2022-10-22T15:10:15.322Z,77.62
2022-10-22T15:12:43.054Z,77.30
2022-10-22T15:15:11.436Z,81.42
2022-10-22T15:17:39.580Z,77.44
2022-10-22T15:20:08.595Z,77.20
2022-10-22T15:22:36.386Z,77.78
2022-10-22T15:25:08.086Z,81.20
2022-10-22T15:27:36.564Z,80.37
2022-10-22T15:30:05.279Z,80.03
2022-10-22T15:32:34.036Z,85.57
2022-10-22T15:35:02.157Z,86.86
2022-10-22T15:37:30.804Z,89.32
2022-10-22T15:39:58.528Z,87.13
2022-10-22T15:42:27.752Z,88.37
2022-10-22T15:44:59.077Z,84.50
2022-10-22T15:47:28.546Z,86.94
2022-10-22T15:49:56.619Z,87.18
2022-10-22T15:52:24.609Z,86.77
2022-10-22T15:54:52.329Z,88.99
2022-10-22T15:57:20.037Z,90.09
2022-10-22T15:59:50.016Z,90.15
2022-10-22T16:02:17.762Z,90.55
2022-10-22T16:04:45.467Z,95.52
2022-10-22T16:07:13.204Z,98.57
2022-10-22T16:09:40.937Z,100.00
2022-10-22T16:12:08.788Z,100.00
2022-10-22T16:14:36.577Z,100.00
2022-10-22T16:17:05.722Z,100.00
2022-10-22T16:19:34.152Z,100.00
2022-10-22T16:22:03.319Z,100.00
2022-10-22T16:24:31.129Z,100.00
2022-10-22T16:26:58.834Z,100.00
2022-10-22T16:29:26.617Z,100.00
2022-10-22T16:31:54.351Z,100.00
2022-10-22T16:34:23.480Z,100.00
2022-10-22T16:39:25.149Z,100.00
2022-10-22T16:41:52.879Z,100.00
2022-10-22T16:44:20.674Z,100.00
2022-10-22T16:46:48.410Z,100.00
2022-10-22T16:49:16.120Z,100.00
2022-10-22T16:51:45.257Z,100.00
2022-10-22T16:54:15.945Z,100.00
2022-10-22T16:56:43.718Z,100.00
2022-10-22T16:59:11.424Z,100.00
2022-10-22T17:01:41.247Z,100.00
2022-10-22T17:04:09.710Z,100.00
2022-10-22T17:06:37.606Z,100.00
2022-10-22T17:09:07.290Z,100.00
2022-10-22T17:11:37.031Z,100.00
2022-10-22T17:14:07.448Z,100.00
2022-10-22T17:16:37.324Z,100.00
2022-10-22T17:19:05.781Z,100.00
2022-10-22T17:21:33.868Z,100.00
2022-10-22T17:24:01.666Z,100.00
2022-10-22T17:26:34.586Z,100.00
2022-10-22T17:29:02.441Z,100.00
2022-10-22T17:31:32.618Z,100.00
2022-10-22T17:34:00.873Z,100.00
2022-10-22T17:36:33.302Z,100.00
2022-10-22T17:39:06.652Z,100.00
2022-10-22T17:41:36.838Z,100.00
2022-10-22T17:44:06.746Z,100.00
2022-10-22T17:46:34.423Z,100.00
2022-10-22T17:49:04.262Z,100.00
2022-10-22T17:51:32.973Z,100.00
2022-10-22T17:54:02.456Z,100.00
2022-10-22T17:56:32.475Z,100.00
2022-10-22T17:59:02.977Z,100.00
2022-10-22T18:01:32.682Z,100.00
2022-10-22T18:04:03.275Z,100.00
2022-10-22T18:06:31.672Z,100.00
2022-10-22T18:09:00.093Z,100.00
2022-10-22T18:11:31.437Z,100.00
2022-10-22T18:14:00.946Z,100.00
2022-10-22T18:16:29.341Z,100.00
2022-10-22T18:18:58.463Z,100.00
2022-10-22T18:21:28.302Z,100.00
2022-10-22T18:23:56.736Z,100.00
2022-10-22T18:26:26.797Z,100.00
2022-10-22T18:28:54.919Z,100.00
2022-10-22T18:31:25.748Z,100.00
2022-10-22T18:36:28.268Z,100.00
2022-10-22T18:38:58.061Z,100.00
2022-10-22T18:41:26.533Z,100.00
2022-10-22T18:43:55.649Z,100.00
2022-10-22T18:46:25.652Z,100.00
2022-10-22T18:48:54.424Z,100.00
2022-10-22T18:51:22.608Z,100.00
2022-10-22T18:54:04.500Z,100.00
2022-10-22T18:56:39.811Z,100.00
2022-10-22T18:59:07.544Z,100.00
2022-10-22T19:01:36.578Z,100.00
2022-10-22T19:04:04.287Z,100.00
2022-10-22T19:06:36.747Z,100.00
2022-10-22T19:09:05.333Z,100.00
2022-10-22T19:11:34.171Z,100.00
2022-10-22T19:14:02.460Z,100.00
2022-10-22T19:16:30.218Z,100.00
2022-10-22T19:19:03.842Z,100.00
2022-10-22T19:21:31.936Z,100.00
2022-10-22T19:24:00.737Z,100.00
2022-10-22T19:26:30.139Z,100.00
2022-10-22T19:28:59.146Z,100.00
2022-10-22T19:31:29.754Z,100.00
2022-10-22T19:33:57.496Z,100.00
2022-10-22T19:36:27.958Z,100.00
2022-10-22T19:38:56.842Z,100.00
2022-10-22T19:41:27.483Z,100.00
2022-10-22T19:43:56.895Z,100.00
2022-10-22T19:46:26.884Z,100.00
2022-10-22T19:48:56.928Z,100.00
2022-10-22T19:51:29.643Z,100.00
2022-10-22T19:54:01.896Z,100.00
2022-10-22T19:56:30.349Z,100.00
2022-10-22T19:58:58.460Z,100.00
2022-10-22T20:01:26.566Z,100.00
2022-10-22T20:03:54.823Z,100.00
2022-10-22T20:06:22.814Z,100.00
2022-10-22T20:08:55.232Z,100.00
2022-10-22T20:11:26.599Z,100.00
2022-10-22T20:13:54.688Z,100.00
2022-10-22T20:16:27.091Z,100.00
2022-10-22T20:18:54.960Z,100.00
2022-10-22T20:21:22.726Z,100.00
2022-10-22T20:23:56.586Z,100.00
2022-10-22T20:26:27.783Z,100.00
2022-10-22T20:28:56.191Z,100.00
2022-10-22T20:31:26.541Z,100.00
2022-10-22T20:33:57.037Z,100.00
2022-10-22T20:36:25.423Z,100.00
2022-10-22T20:39:00.318Z,100.00
2022-10-22T20:41:28.500Z,100.00
2022-10-22T20:43:56.440Z,100.00
2022-10-22T20:46:26.320Z,100.00
2022-10-22T20:48:56.114Z,100.00
2022-10-22T20:51:23.818Z,100.00
2022-10-22T20:53:51.645Z,100.00
2022-10-22T20:56:21.150Z,100.00
2022-10-22T20:58:49.076Z,100.00
2022-10-22T21:01:21.459Z,100.00
2022-10-22T21:03:49.696Z,100.00
2022-10-22T21:06:17.598Z,100.00
2022-10-22T21:08:45.289Z,100.00
2022-10-22T21:11:13.027Z,100.00
2022-10-22T21:13:42.036Z,100.00
2022-10-22T21:16:11.119Z,100.00
2022-10-22T21:18:39.221Z,100.00
2022-10-22T21:21:07.839Z,100.00
2022-10-22T21:23:36.817Z,100.00
2022-10-22T21:26:05.278Z,100.00
2022-10-22T21:28:35.165Z,100.00
2022-10-22T21:31:05.524Z,100.00
2022-10-22T21:33:33.469Z,100.00
2022-10-22T21:36:01.146Z,100.00
2022-10-22T21:38:28.836Z,100.00
2022-10-22T21:40:56.588Z,100.00
2022-10-22T21:43:24.381Z,100.00
2022-10-22T21:45:52.082Z,100.00
2022-10-22T21:48:21.091Z,100.00
2022-10-22T21:50:49.986Z,100.00
2022-10-22T21:53:17.659Z,100.00
2022-10-22T21:55:45.323Z,100.00
2022-10-22T21:58:13.038Z,100.00
2022-10-22T22:00:40.732Z,100.00
2022-10-22T22:03:08.946Z,100.00
2022-10-22T22:05:38.036Z,100.00
2022-10-22T22:08:06.196Z,100.00
2022-10-22T22:10:33.925Z,100.00
2022-10-22T22:13:01.644Z,100.00
2022-10-22T22:15:31.490Z,100.00
2022-10-22T22:17:59.191Z,100.00
2022-10-22T22:20:27.032Z,100.00
2022-10-22T22:22:56.055Z,100.00
2022-10-22T22:25:23.773Z,100.00
2022-10-22T22:27:51.449Z,100.00
2022-10-22T22:30:19.149Z,100.00
2022-10-22T22:32:46.889Z,100.00
2022-10-22T22:35:14.618Z,100.00
2022-10-22T22:37:42.526Z,100.00
2022-10-22T22:40:12.770Z,100.00
2022-10-22T22:42:40.456Z,100.00
2022-10-22T22:45:08.776Z,100.00
2022-10-22T22:47:36.428Z,100.00
2022-10-22T22:50:04.279Z,100.00
2022-10-22T22:52:32.093Z,100.00
2022-10-22T22:54:59.761Z,100.00
2022-10-22T22:57:29.038Z,100.00
2022-10-22T22:59:59.636Z,100.00
2022-10-22T23:02:27.411Z,100.00
2022-10-22T23:04:55.235Z,100.00
2022-10-22T23:07:22.940Z,100.00
2022-10-22T23:09:50.730Z,100.00
2022-10-22T23:12:18.606Z,100.00
2022-10-22T23:14:50.224Z,100.00
2022-10-22T23:17:18.061Z,100.00
2022-10-22T23:19:45.817Z,100.00
2022-10-22T23:22:13.508Z,100.00
2022-10-22T23:24:41.206Z,100.00
2022-10-22T23:27:08.849Z,100.00
2022-10-22T23:29:36.975Z,100.00
2022-10-22T23:32:09.294Z,100.00
2022-10-22T23:34:36.980Z,100.00
2022-10-22T23:37:04.875Z,100.00
2022-10-22T23:39:32.758Z,100.00
2022-10-22T23:42:00.432Z,100.00
2022-10-22T23:44:28.135Z,100.00
2022-10-22T23:46:56.092Z,100.00
2022-10-22T23:49:25.121Z,100.00
2022-10-22T23:51:52.942Z,100.00
2022-10-22T23:54:20.751Z,100.00
2022-10-22T23:56:48.638Z,100.00
2022-10-22T23:59:16.523Z,100.00
